createdAt,value
2023-05-04T00:03:49.254Z,10.91
2023-05-04T00:08:51.108Z,10.93
2023-05-04T00:13:52.828Z,10.69
2023-05-04T00:18:54.372Z,10.50
2023-05-04T00:23:55.960Z,10.46
2023-05-04T00:28:57.499Z,10.43
2023-05-04T00:33:59.111Z,10.16
2023-05-04T00:39:00.776Z,10.10
2023-05-04T00:44:03.706Z,10.19
2023-05-04T00:49:06.565Z,10.27
2023-05-04T00:54:08.122Z,10.20
2023-05-04T00:59:10.097Z,10.05
2023-05-04T01:04:12.188Z,10.00
2023-05-04T01:09:37.077Z,9.80
2023-05-04T01:14:39.676Z,10.07
2023-05-04T01:19:41.200Z,10.22
2023-05-04T01:24:42.890Z,10.15
2023-05-04T01:29:52.926Z,10.13
2023-05-04T01:34:54.705Z,9.86
2023-05-04T01:39:56.176Z,9.77
2023-05-04T01:44:58.600Z,9.61
2023-05-04T01:50:00.237Z,9.33
2023-05-04T01:55:01.755Z,9.37
2023-05-04T02:00:03.682Z,9.30
2023-05-04T02:05:17.080Z,9.17
2023-05-04T02:10:18.609Z,8.99
2023-05-04T02:15:20.286Z,8.97
2023-05-04T02:20:21.796Z,8.97
2023-05-04T02:25:23.413Z,8.76
2023-05-04T02:30:24.945Z,8.50
2023-05-04T02:35:26.475Z,8.45
2023-05-04T02:40:28.121Z,8.43
2023-05-04T02:45:31.555Z,8.49
2023-05-04T02:50:33.375Z,8.85
2023-05-04T02:55:34.891Z,9.09
2023-05-04T03:00:36.416Z,9.00
2023-05-04T03:05:37.943Z,8.85
2023-05-04T03:10:39.443Z,8.53
2023-05-04T03:15:40.937Z,8.16
2023-05-04T03:20:42.652Z,8.29
2023-05-04T03:25:47.834Z,8.34
2023-05-04T03:30:50.023Z,8.30
2023-05-04T03:35:53.727Z,8.02
2023-05-04T03:40:55.254Z,7.80
2023-05-04T03:45:58.017Z,7.98
2023-05-04T03:50:59.811Z,8.10
2023-05-04T03:56:02.233Z,8.25
2023-05-04T04:01:04.792Z,8.21
2023-05-04T04:06:06.632Z,8.14
2023-05-04T04:11:08.286Z,8.16
2023-05-04T04:16:09.982Z,7.98
2023-05-04T04:21:11.758Z,7.91
2023-05-04T04:26:13.277Z,7.97
2023-05-04T04:31:14.879Z,7.95
2023-05-04T04:36:16.494Z,8.03
2023-05-04T04:41:17.964Z,8.04
2023-05-04T04:46:19.463Z,8.15
2023-05-04T04:51:21.486Z,8.34
2023-05-04T04:56:23.020Z,8.37
2023-05-04T05:01:24.651Z,8.49
2023-05-04T05:06:26.228Z,8.63
2023-05-04T05:11:27.712Z,8.75
2023-05-04T05:16:29.300Z,9.14
2023-05-04T05:21:30.863Z,9.96
2023-05-04T05:26:32.354Z,10.97
2023-05-04T05:31:33.884Z,11.34
2023-05-04T05:36:35.526Z,11.53
2023-05-04T05:41:37.415Z,11.73
2023-05-04T05:46:39.122Z,12.08
2023-05-04T05:51:40.840Z,12.48
2023-05-04T05:56:42.337Z,12.34
2023-05-04T06:01:43.862Z,12.44
2023-05-04T06:06:46.191Z,12.39
2023-05-04T06:11:47.807Z,12.58
2023-05-04T06:16:49.362Z,12.97
2023-05-04T06:21:50.878Z,12.91
2023-05-04T06:26:52.474Z,13.88
2023-05-04T06:31:54.077Z,14.39
2023-05-04T06:36:55.692Z,15.56
2023-05-04T06:41:57.190Z,14.97
2023-05-04T06:47:00.733Z,14.81
2023-05-04T06:52:02.289Z,14.89
2023-05-04T06:57:03.771Z,15.14
2023-05-04T07:02:05.261Z,15.76
2023-05-04T07:07:06.806Z,15.58
2023-05-04T07:12:08.317Z,15.44
2023-05-04T07:17:09.857Z,15.92
2023-05-04T07:22:11.385Z,16.48
2023-05-04T07:27:12.923Z,16.21
2023-05-04T07:32:14.480Z,16.29
2023-05-04T07:37:16.208Z,17.92
2023-05-04T07:42:17.933Z,17.28
2023-05-04T07:47:20.008Z,18.13
2023-05-04T07:52:21.604Z,18.76
2023-05-04T07:57:23.120Z,18.48
2023-05-04T08:02:24.833Z,18.72
2023-05-04T08:07:26.844Z,20.98
2023-05-04T08:12:28.386Z,20.41
2023-05-04T08:17:29.951Z,19.98
2023-05-04T08:22:31.520Z,21.02
2023-05-04T08:27:33.030Z,21.07
2023-05-04T08:32:34.598Z,20.84
2023-05-04T08:37:36.230Z,22.76
2023-05-04T08:42:37.745Z,22.55
2023-05-04T08:47:39.269Z,20.91
2023-05-04T08:52:45.145Z,20.81
2023-05-04T08:57:47.609Z,21.18
2023-05-04T09:02:50.637Z,21.50
2023-05-04T09:07:53.215Z,21.96
2023-05-04T09:12:54.988Z,24.40
2023-05-04T09:18:03.111Z,25.26
2023-05-04T09:23:05.910Z,25.10
2023-05-04T09:28:07.420Z,24.91
2023-05-04T09:33:09.697Z,25.49
2023-05-04T09:38:11.302Z,25.24
2023-05-04T09:43:12.885Z,25.98
2023-05-04T09:48:24.930Z,25.26
2023-05-04T09:53:28.856Z,25.43
2023-05-04T09:58:31.104Z,25.64
2023-05-04T10:03:33.059Z,26.44
2023-05-04T10:08:35.871Z,26.25
2023-05-04T10:13:37.905Z,26.61
2023-05-04T10:18:57.791Z,26.28
2023-05-04T10:24:33.041Z,26.58
2023-05-04T10:29:34.994Z,26.22
2023-05-04T10:34:36.583Z,26.73
2023-05-04T10:39:38.184Z,26.67
2023-05-04T10:44:51.709Z,24.86
2023-05-04T10:50:04.361Z,27.30
2023-05-04T10:55:06.399Z,26.90
2023-05-04T11:00:08.780Z,27.85
2023-05-04T11:05:10.392Z,26.26
2023-05-04T11:10:23.765Z,28.15
2023-05-04T11:15:25.355Z,28.00
2023-05-04T11:20:27.525Z,26.69
2023-05-04T11:25:30.318Z,25.17
2023-05-04T11:30:35.315Z,27.42
2023-05-04T11:35:36.812Z,27.96
2023-05-04T11:40:38.685Z,25.59
2023-05-04T11:45:40.846Z,26.54
2023-05-04T11:50:42.616Z,26.23
2023-05-04T11:55:44.181Z,25.64
2023-05-04T12:00:46.809Z,25.92
2023-05-04T12:05:53.199Z,26.18
2023-05-04T12:11:13.994Z,26.06
2023-05-04T12:16:17.347Z,26.14
2023-05-04T12:21:20.326Z,26.38
2023-05-04T12:26:21.811Z,27.02
2023-05-04T12:31:25.242Z,26.57
2023-05-04T12:36:27.130Z,26.89
2023-05-04T12:41:28.647Z,26.26
2023-05-04T12:46:30.752Z,26.11
2023-05-04T12:51:32.396Z,25.99
2023-05-04T12:56:34.016Z,26.13
2023-05-04T13:01:35.588Z,26.21
2023-05-04T13:06:37.186Z,26.95
2023-05-04T13:11:38.750Z,27.89
2023-05-04T13:16:40.233Z,27.83
2023-05-04T13:21:41.857Z,26.31
2023-05-04T13:26:43.372Z,27.15
2023-05-04T13:31:45.357Z,27.43
2023-05-04T13:36:47.001Z,27.85
2023-05-04T13:41:48.786Z,28.13
2023-05-04T13:46:50.325Z,27.65
2023-05-04T13:51:51.888Z,27.35
2023-05-04T13:56:53.407Z,28.30
2023-05-04T14:01:55.170Z,27.47
2023-05-04T14:06:56.678Z,27.66
2023-05-04T14:11:58.216Z,28.60
2023-05-04T14:16:59.839Z,28.03
2023-05-04T14:22:01.394Z,28.82
2023-05-04T14:27:02.914Z,27.19
2023-05-04T14:32:04.575Z,27.06
2023-05-04T14:37:06.167Z,28.17
2023-05-04T14:42:07.657Z,28.47
2023-05-04T14:47:09.175Z,28.79
2023-05-04T14:52:10.700Z,28.87
2023-05-04T14:57:12.197Z,29.45
2023-05-04T15:02:13.722Z,29.77
2023-05-04T15:07:16.632Z,29.46
2023-05-04T15:12:18.151Z,28.10
2023-05-04T15:17:20.250Z,29.66
2023-05-04T15:22:21.822Z,29.14
2023-05-04T15:27:23.478Z,29.13
2023-05-04T15:32:24.975Z,29.67
2023-05-04T15:37:26.591Z,28.80
2023-05-04T15:42:28.104Z,27.55
2023-05-04T15:47:29.663Z,28.41
2023-05-04T15:52:31.171Z,27.86
2023-05-04T15:57:32.899Z,28.61
2023-05-04T16:02:34.430Z,28.62
2023-05-04T16:07:35.961Z,28.60
2023-05-04T16:12:40.854Z,28.41
2023-05-04T16:17:42.469Z,29.00
2023-05-04T16:22:43.995Z,29.17
2023-05-04T16:27:45.595Z,28.46
2023-05-04T16:32:47.160Z,28.05
2023-05-04T16:37:48.797Z,28.67
2023-05-04T16:42:50.390Z,28.41
2023-05-04T16:47:52.190Z,28.81
2023-05-04T16:52:53.799Z,28.42
2023-05-04T16:57:56.989Z,28.60
2023-05-04T17:02:58.568Z,27.90
2023-05-04T17:08:00.329Z,27.11
2023-05-04T17:13:02.514Z,27.17
2023-05-04T17:18:04.298Z,26.71
2023-05-04T17:23:05.904Z,26.02
2023-05-04T17:28:07.556Z,25.75
2023-05-04T17:33:09.102Z,25.42
2023-05-04T17:38:10.741Z,24.59
2023-05-04T17:43:12.360Z,24.22
2023-05-04T17:48:13.843Z,23.91
2023-05-04T17:53:15.355Z,23.50
2023-05-04T17:58:16.862Z,23.44
2023-05-04T18:03:18.452Z,23.40
2023-05-04T18:08:20.078Z,23.22
2023-05-04T18:13:21.601Z,23.01
2023-05-04T18:18:23.116Z,22.89
2023-05-04T18:23:24.694Z,22.56
2023-05-04T18:28:26.301Z,22.48
2023-05-04T18:33:27.830Z,22.30
2023-05-04T18:38:29.346Z,22.34
2023-05-04T18:43:31.055Z,22.13
2023-05-04T18:48:32.587Z,21.98
2023-05-04T18:53:34.106Z,21.70
2023-05-04T18:58:37.072Z,21.62
2023-05-04T19:03:38.657Z,21.20
2023-05-04T19:08:40.163Z,20.82
2023-05-04T19:13:41.737Z,20.60
2023-05-04T19:18:43.378Z,20.38
2023-05-04T19:23:44.952Z,20.20
2023-05-04T19:28:46.606Z,19.89
2023-05-04T19:33:48.985Z,19.81
2023-05-04T19:38:50.716Z,19.74
2023-05-04T19:43:52.229Z,19.76
2023-05-04T19:48:53.766Z,19.67
2023-05-04T19:53:55.353Z,19.73
2023-05-04T19:58:56.880Z,19.89
2023-05-04T20:03:58.437Z,19.83
2023-05-04T20:08:59.941Z,19.52
2023-05-04T20:14:01.728Z,19.09
2023-05-04T20:19:04.100Z,18.75
2023-05-04T20:24:06.021Z,18.54
2023-05-04T20:29:07.544Z,18.46
2023-05-04T20:34:09.103Z,18.13
2023-05-04T20:39:10.608Z,17.86
2023-05-04T20:44:12.120Z,17.81
2023-05-04T20:49:13.666Z,17.80
2023-05-04T20:54:15.149Z,17.64
2023-05-04T20:59:16.708Z,17.70
2023-05-04T21:04:18.222Z,17.52
2023-05-04T21:09:19.818Z,17.55
2023-05-04T21:14:21.320Z,17.63
2023-05-04T21:19:22.917Z,17.81
2023-05-04T21:24:24.501Z,18.12
2023-05-04T21:29:26.346Z,18.30
2023-05-04T21:34:27.833Z,18.36
2023-05-04T21:39:29.519Z,18.28
2023-05-04T21:44:31.058Z,18.18
2023-05-04T21:49:32.573Z,18.03
2023-05-04T21:54:34.067Z,18.07
2023-05-04T21:59:35.611Z,18.15
2023-05-04T22:04:37.174Z,18.25
2023-05-04T22:09:38.707Z,18.31
2023-05-04T22:14:42.205Z,18.46
2023-05-04T22:19:44.065Z,18.59
2023-05-04T22:24:45.549Z,18.59
2023-05-04T22:29:47.039Z,18.57
2023-05-04T22:34:48.518Z,18.50
2023-05-04T22:39:50.019Z,18.51
2023-05-04T22:44:51.512Z,18.64
2023-05-04T22:49:56.282Z,18.69
2023-05-04T22:54:57.800Z,18.62
2023-05-04T22:59:59.322Z,18.53
2023-05-04T23:05:00.849Z,18.29
2023-05-04T23:10:02.350Z,18.34
2023-05-04T23:15:05.533Z,18.24
2023-05-04T23:20:08.575Z,17.91
2023-05-04T23:25:10.351Z,17.88
2023-05-04T23:30:12.152Z,17.72
2023-05-04T23:35:13.652Z,17.52
2023-05-04T23:40:15.141Z,17.33
2023-05-04T23:45:16.785Z,17.37
2023-05-04T23:50:18.436Z,17.46
2023-05-04T23:55:20.108Z,17.60
